sensor_id;sensor_type;location;lat;lon;timestamp;P1;durP1;ratioP1;P2;durP2;ratioP2
286;SDS011;127;48.770;9.212;2023-07-08T00:02:24;12.73;;;6.87;;
286;SDS011;127;48.770;9.212;2023-07-08T00:04:54;12.80;;;6.07;;
286;SDS011;127;48.770;9.212;2023-07-08T00:07:22;19.07;;;7.23;;
286;SDS011;127;48.770;9.212;2023-07-08T00:09:51;15.03;;;6.93;;
286;SDS011;127;48.770;9.212;2023-07-08T00:12:20;14.23;;;6.50;;
286;SDS011;127;48.770;9.212;2023-07-08T00:14:48;13.10;;;6.53;;
286;SDS011;127;48.770;9.212;2023-07-08T00:17:19;13.37;;;5.90;;
286;SDS011;127;48.770;9.212;2023-07-08T00:19:48;14.17;;;7.17;;
286;SDS011;127;48.770;9.212;2023-07-08T00:22:19;11.67;;;6.33;;
286;SDS011;127;48.770;9.212;2023-07-08T00:24:49;12.87;;;6.00;;
286;SDS011;127;48.770;9.212;2023-07-08T00:27:18;11.57;;;6.53;;
286;SDS011;127;48.770;9.212;2023-07-08T00:29:47;12.17;;;6.67;;
286;SDS011;127;48.770;9.212;2023-07-08T00:32:16;13.43;;;6.33;;
286;SDS011;127;48.770;9.212;2023-07-08T00:34:47;13.93;;;6.73;;
286;SDS011;127;48.770;9.212;2023-07-08T00:37:16;15.70;;;6.33;;
286;SDS011;127;48.770;9.212;2023-07-08T00:39:44;14.03;;;6.70;;
286;SDS011;127;48.770;9.212;2023-07-08T00:42:15;14.27;;;6.80;;
286;SDS011;127;48.770;9.212;2023-07-08T00:44:52;15.47;;;6.33;;
286;SDS011;127;48.770;9.212;2023-07-08T00:47:21;14.83;;;5.83;;
286;SDS011;127;48.770;9.212;2023-07-08T00:49:55;14.60;;;6.80;;
286;SDS011;127;48.770;9.212;2023-07-08T00:52:27;15.13;;;7.43;;
286;SDS011;127;48.770;9.212;2023-07-08T00:54:58;13.10;;;6.60;;
286;SDS011;127;48.770;9.212;2023-07-08T00:57:29;13.97;;;6.80;;
286;SDS011;127;48.770;9.212;2023-07-08T01:00:03;15.67;;;6.90;;
286;SDS011;127;48.770;9.212;2023-07-08T01:02:35;15.30;;;7.10;;
286;SDS011;127;48.770;9.212;2023-07-08T01:05:12;13.00;;;5.97;;
286;SDS011;127;48.770;9.212;2023-07-08T01:07:45;17.67;;;7.33;;
286;SDS011;127;48.770;9.212;2023-07-08T01:10:20;14.60;;;6.60;;
286;SDS011;127;48.770;9.212;2023-07-08T01:12:55;19.40;;;8.50;;
286;SDS011;127;48.770;9.212;2023-07-08T01:15:30;17.17;;;6.87;;
286;SDS011;127;48.770;9.212;2023-07-08T01:18:03;18.23;;;6.50;;
286;SDS011;127;48.770;9.212;2023-07-08T01:20:34;12.00;;;6.30;;
286;SDS011;127;48.770;9.212;2023-07-08T01:23:06;12.00;;;6.83;;
286;SDS011;127;48.770;9.212;2023-07-08T01:25:35;12.67;;;6.30;;
286;SDS011;127;48.770;9.212;2023-07-08T01:28:03;11.90;;;5.47;;
286;SDS011;127;48.770;9.212;2023-07-08T01:30:33;17.57;;;7.23;;
286;SDS011;127;48.770;9.212;2023-07-08T01:33:02;12.97;;;5.90;;
286;SDS011;127;48.770;9.212;2023-07-08T01:35:34;15.53;;;7.57;;
286;SDS011;127;48.770;9.212;2023-07-08T01:38:06;16.50;;;6.00;;
286;SDS011;127;48.770;9.212;2023-07-08T01:40:46;12.27;;;6.70;;
286;SDS011;127;48.770;9.212;2023-07-08T01:43:17;10.77;;;6.03;;
286;SDS011;127;48.770;9.212;2023-07-08T01:45:46;13.20;;;5.50;;
286;SDS011;127;48.770;9.212;2023-07-08T01:48:17;15.47;;;6.47;;
286;SDS011;127;48.770;9.212;2023-07-08T01:50:49;11.07;;;5.97;;
286;SDS011;127;48.770;9.212;2023-07-08T01:53:30;13.83;;;6.30;;
286;SDS011;127;48.770;9.212;2023-07-08T01:56:01;18.30;;;7.60;;
286;SDS011;127;48.770;9.212;2023-07-08T01:58:30;19.20;;;6.70;;
286;SDS011;127;48.770;9.212;2023-07-08T02:00:59;12.43;;;6.17;;
286;SDS011;127;48.770;9.212;2023-07-08T02:03:28;16.23;;;6.00;;
286;SDS011;127;48.770;9.212;2023-07-08T02:05:56;12.47;;;6.13;;
286;SDS011;127;48.770;9.212;2023-07-08T02:08:25;11.53;;;5.60;;
286;SDS011;127;48.770;9.212;2023-07-08T02:10:57;12.93;;;6.17;;
286;SDS011;127;48.770;9.212;2023-07-08T02:13:26;14.13;;;6.13;;
286;SDS011;127;48.770;9.212;2023-07-08T02:15:55;14.10;;;6.63;;
286;SDS011;127;48.770;9.212;2023-07-08T02:18:24;11.70;;;6.00;;
286;SDS011;127;48.770;9.212;2023-07-08T02:20:52;12.23;;;6.37;;
286;SDS011;127;48.770;9.212;2023-07-08T02:23:21;17.53;;;6.87;;
286;SDS011;127;48.770;9.212;2023-07-08T02:25:52;17.50;;;7.10;;
286;SDS011;127;48.770;9.212;2023-07-08T02:28:22;12.03;;;6.60;;
286;SDS011;127;48.770;9.212;2023-07-08T02:30:51;14.03;;;7.13;;
286;SDS011;127;48.770;9.212;2023-07-08T02:33:20;10.97;;;5.70;;
286;SDS011;127;48.770;9.212;2023-07-08T02:35:57;10.47;;;6.17;;
286;SDS011;127;48.770;9.212;2023-07-08T02:38:26;14.00;;;6.60;;
286;SDS011;127;48.770;9.212;2023-07-08T02:40:57;9.50;;;5.37;;
286;SDS011;127;48.770;9.212;2023-07-08T02:43:27;17.80;;;6.53;;
286;SDS011;127;48.770;9.212;2023-07-08T02:45:56;11.03;;;5.80;;
286;SDS011;127;48.770;9.212;2023-07-08T02:48:25;10.83;;;5.70;;
286;SDS011;127;48.770;9.212;2023-07-08T02:50:58;17.27;;;6.90;;
286;SDS011;127;48.770;9.212;2023-07-08T02:53:27;12.73;;;5.80;;
286;SDS011;127;48.770;9.212;2023-07-08T02:55:58;12.37;;;6.20;;
286;SDS011;127;48.770;9.212;2023-07-08T02:58:27;11.67;;;6.00;;
286;SDS011;127;48.770;9.212;2023-07-08T03:00:56;13.03;;;6.70;;
286;SDS011;127;48.770;9.212;2023-07-08T03:03:26;14.10;;;6.50;;
286;SDS011;127;48.770;9.212;2023-07-08T03:05:56;17.67;;;7.07;;
286;SDS011;127;48.770;9.212;2023-07-08T03:08:27;14.23;;;6.07;;
286;SDS011;127;48.770;9.212;2023-07-08T03:10:59;13.00;;;6.03;;
286;SDS011;127;48.770;9.212;2023-07-08T03:13:29;14.13;;;6.73;;
286;SDS011;127;48.770;9.212;2023-07-08T03:15:59;13.63;;;7.30;;
286;SDS011;127;48.770;9.212;2023-07-08T03:18:33;11.40;;;6.07;;
286;SDS011;127;48.770;9.212;2023-07-08T03:21:10;13.33;;;6.43;;
286;SDS011;127;48.770;9.212;2023-07-08T03:23:40;12.67;;;6.40;;
286;SDS011;127;48.770;9.212;2023-07-08T03:26:14;12.47;;;6.90;;
286;SDS011;127;48.770;9.212;2023-07-08T03:28:44;17.93;;;7.80;;
286;SDS011;127;48.770;9.212;2023-07-08T03:31:13;13.70;;;6.60;;
286;SDS011;127;48.770;9.212;2023-07-08T03:33:42;16.50;;;6.33;;
286;SDS011;127;48.770;9.212;2023-07-08T03:36:12;13.60;;;6.23;;
286;SDS011;127;48.770;9.212;2023-07-08T03:38:47;15.63;;;6.70;;
286;SDS011;127;48.770;9.212;2023-07-08T03:41:19;16.20;;;5.53;;
286;SDS011;127;48.770;9.212;2023-07-08T03:43:48;11.30;;;5.20;;
286;SDS011;127;48.770;9.212;2023-07-08T03:46:18;11.70;;;6.40;;
286;SDS011;127;48.770;9.212;2023-07-08T03:48:48;12.00;;;6.13;;
286;SDS011;127;48.770;9.212;2023-07-08T03:51:19;13.17;;;6.67;;
286;SDS011;127;48.770;9.212;2023-07-08T03:53:50;18.30;;;7.23;;
286;SDS011;127;48.770;9.212;2023-07-08T03:56:22;16.43;;;7.07;;
286;SDS011;127;48.770;9.212;2023-07-08T03:58:50;15.30;;;7.07;;
286;SDS011;127;48.770;9.212;2023-07-08T04:01:21;12.60;;;5.97;;
286;SDS011;127;48.770;9.212;2023-07-08T04:03:51;11.17;;;5.80;;
286;SDS011;127;48.770;9.212;2023-07-08T04:06:21;14.80;;;5.90;;
286;SDS011;127;48.770;9.212;2023-07-08T04:08:50;15.20;;;6.40;;
286;SDS011;127;48.770;9.212;2023-07-08T04:11:23;12.57;;;6.53;;
286;SDS011;127;48.770;9.212;2023-07-08T04:13:52;14.00;;;6.80;;
286;SDS011;127;48.770;9.212;2023-07-08T04:16:21;13.57;;;6.53;;
286;SDS011;127;48.770;9.212;2023-07-08T04:18:53;15.90;;;7.87;;
286;SDS011;127;48.770;9.212;2023-07-08T04:21:24;14.33;;;5.60;;
286;SDS011;127;48.770;9.212;2023-07-08T04:23:53;14.20;;;6.23;;
286;SDS011;127;48.770;9.212;2023-07-08T04:26:24;12.50;;;6.40;;
286;SDS011;127;48.770;9.212;2023-07-08T04:28:52;13.40;;;6.70;;
286;SDS011;127;48.770;9.212;2023-07-08T04:31:21;13.83;;;6.13;;
286;SDS011;127;48.770;9.212;2023-07-08T04:33:50;12.80;;;6.27;;
286;SDS011;127;48.770;9.212;2023-07-08T04:36:18;16.10;;;7.80;;
286;SDS011;127;48.770;9.212;2023-07-08T04:38:50;14.47;;;7.10;;
286;SDS011;127;48.770;9.212;2023-07-08T04:41:18;16.77;;;7.20;;
286;SDS011;127;48.770;9.212;2023-07-08T04:43:50;17.37;;;6.50;;
286;SDS011;127;48.770;9.212;2023-07-08T04:46:19;14.33;;;7.10;;
286;SDS011;127;48.770;9.212;2023-07-08T04:48:55;19.07;;;7.10;;
286;SDS011;127;48.770;9.212;2023-07-08T04:51:25;11.50;;;5.93;;
286;SDS011;127;48.770;9.212;2023-07-08T04:53:54;14.40;;;6.97;;
286;SDS011;127;48.770;9.212;2023-07-08T04:56:25;16.13;;;6.87;;
286;SDS011;127;48.770;9.212;2023-07-08T04:59:04;16.83;;;7.60;;
286;SDS011;127;48.770;9.212;2023-07-08T05:01:33;16.43;;;7.20;;
286;SDS011;127;48.770;9.212;2023-07-08T05:04:02;14.70;;;6.57;;
286;SDS011;127;48.770;9.212;2023-07-08T05:06:32;17.30;;;6.83;;
286;SDS011;127;48.770;9.212;2023-07-08T05:09:00;14.23;;;6.77;;
286;SDS011;127;48.770;9.212;2023-07-08T05:11:30;12.40;;;6.23;;
286;SDS011;127;48.770;9.212;2023-07-08T05:14:00;14.67;;;6.53;;
286;SDS011;127;48.770;9.212;2023-07-08T05:16:32;16.70;;;7.33;;
286;SDS011;127;48.770;9.212;2023-07-08T05:19:02;13.50;;;7.03;;
286;SDS011;127;48.770;9.212;2023-07-08T05:21:31;19.97;;;7.70;;
286;SDS011;127;48.770;9.212;2023-07-08T05:24:00;22.33;;;6.80;;
286;SDS011;127;48.770;9.212;2023-07-08T05:26:29;12.80;;;6.70;;
286;SDS011;127;48.770;9.212;2023-07-08T05:28:58;15.27;;;7.80;;
286;SDS011;127;48.770;9.212;2023-07-08T05:31:27;13.13;;;6.53;;
286;SDS011;127;48.770;9.212;2023-07-08T05:33:59;14.10;;;6.80;;
286;SDS011;127;48.770;9.212;2023-07-08T05:36:27;16.80;;;7.80;;
286;SDS011;127;48.770;9.212;2023-07-08T05:38:56;19.83;;;6.27;;
286;SDS011;127;48.770;9.212;2023-07-08T05:41:25;14.20;;;7.03;;
286;SDS011;127;48.770;9.212;2023-07-08T05:43:54;20.80;;;7.30;;
286;SDS011;127;48.770;9.212;2023-07-08T05:46:23;14.43;;;7.00;;
286;SDS011;127;48.770;9.212;2023-07-08T05:48:51;12.63;;;6.13;;
286;SDS011;127;48.770;9.212;2023-07-08T05:51:22;16.30;;;7.50;;
286;SDS011;127;48.770;9.212;2023-07-08T05:53:51;15.27;;;6.70;;
286;SDS011;127;48.770;9.212;2023-07-08T05:56:20;17.20;;;7.67;;
286;SDS011;127;48.770;9.212;2023-07-08T05:58:49;11.20;;;6.20;;
286;SDS011;127;48.770;9.212;2023-07-08T06:01:17;14.67;;;6.40;;
286;SDS011;127;48.770;9.212;2023-07-08T06:03:46;15.17;;;7.03;;
286;SDS011;127;48.770;9.212;2023-07-08T06:06:15;16.03;;;6.80;;
286;SDS011;127;48.770;9.212;2023-07-08T06:08:46;19.70;;;7.90;;
286;SDS011;127;48.770;9.212;2023-07-08T06:11:17;14.50;;;6.63;;
286;SDS011;127;48.770;9.212;2023-07-08T06:13:47;20.10;;;7.93;;
286;SDS011;127;48.770;9.212;2023-07-08T06:16:15;14.67;;;6.37;;
286;SDS011;127;48.770;9.212;2023-07-08T06:18:44;14.00;;;7.30;;
286;SDS011;127;48.770;9.212;2023-07-08T06:21:13;19.40;;;7.80;;
286;SDS011;127;48.770;9.212;2023-07-08T06:23:41;12.07;;;5.70;;
286;SDS011;127;48.770;9.212;2023-07-08T06:26:13;15.57;;;7.00;;
286;SDS011;127;48.770;9.212;2023-07-08T06:28:41;11.70;;;6.50;;
286;SDS011;127;48.770;9.212;2023-07-08T06:31:10;16.53;;;7.60;;
286;SDS011;127;48.770;9.212;2023-07-08T06:33:39;11.00;;;6.27;;
286;SDS011;127;48.770;9.212;2023-07-08T06:36:07;13.77;;;6.60;;
286;SDS011;127;48.770;9.212;2023-07-08T06:38:36;17.70;;;6.60;;
286;SDS011;127;48.770;9.212;2023-07-08T06:41:05;16.93;;;7.67;;
286;SDS011;127;48.770;9.212;2023-07-08T06:43:37;15.07;;;7.73;;
286;SDS011;127;48.770;9.212;2023-07-08T06:46:06;12.90;;;6.20;;
286;SDS011;127;48.770;9.212;2023-07-08T06:48:36;10.80;;;5.70;;
286;SDS011;127;48.770;9.212;2023-07-08T06:51:05;14.50;;;6.30;;
286;SDS011;127;48.770;9.212;2023-07-08T06:53:34;13.20;;;5.90;;
286;SDS011;127;48.770;9.212;2023-07-08T06:56:03;10.77;;;5.67;;
286;SDS011;127;48.770;9.212;2023-07-08T06:58:32;11.10;;;5.77;;
286;SDS011;127;48.770;9.212;2023-07-08T07:01:06;10.53;;;5.00;;
286;SDS011;127;48.770;9.212;2023-07-08T07:03:35;9.97;;;5.50;;
286;SDS011;127;48.770;9.212;2023-07-08T07:06:03;17.60;;;5.50;;
286;SDS011;127;48.770;9.212;2023-07-08T07:08:32;13.17;;;5.73;;
286;SDS011;127;48.770;9.212;2023-07-08T07:11:01;12.73;;;5.20;;
286;SDS011;127;48.770;9.212;2023-07-08T07:13:29;9.67;;;5.27;;
286;SDS011;127;48.770;9.212;2023-07-08T07:15:58;13.37;;;5.30;;
286;SDS011;127;48.770;9.212;2023-07-08T07:18:29;11.60;;;5.10;;
286;SDS011;127;48.770;9.212;2023-07-08T07:20:58;14.63;;;5.20;;
286;SDS011;127;48.770;9.212;2023-07-08T07:23:27;12.83;;;5.47;;
286;SDS011;127;48.770;9.212;2023-07-08T07:25:56;9.67;;;5.00;;
286;SDS011;127;48.770;9.212;2023-07-08T07:28:25;14.30;;;6.23;;
286;SDS011;127;48.770;9.212;2023-07-08T07:30:57;9.57;;;4.67;;
286;SDS011;127;48.770;9.212;2023-07-08T07:33:30;9.90;;;4.90;;
286;SDS011;127;48.770;9.212;2023-07-08T07:35:59;10.90;;;4.87;;
286;SDS011;127;48.770;9.212;2023-07-08T07:38:28;9.43;;;4.50;;
286;SDS011;127;48.770;9.212;2023-07-08T07:40:58;17.37;;;5.20;;
286;SDS011;127;48.770;9.212;2023-07-08T07:43:31;9.57;;;4.90;;
286;SDS011;127;48.770;9.212;2023-07-08T07:46:01;10.33;;;4.77;;
286;SDS011;127;48.770;9.212;2023-07-08T07:48:33;10.77;;;4.47;;
286;SDS011;127;48.770;9.212;2023-07-08T07:51:02;9.80;;;4.30;;
286;SDS011;127;48.770;9.212;2023-07-08T07:53:35;7.00;;;3.93;;
286;SDS011;127;48.770;9.212;2023-07-08T07:56:04;8.40;;;4.23;;
286;SDS011;127;48.770;9.212;2023-07-08T07:58:33;11.00;;;5.10;;
286;SDS011;127;48.770;9.212;2023-07-08T08:01:04;10.73;;;5.00;;
286;SDS011;127;48.770;9.212;2023-07-08T08:03:36;13.00;;;4.73;;
286;SDS011;127;48.770;9.212;2023-07-08T08:06:04;11.90;;;5.00;;
286;SDS011;127;48.770;9.212;2023-07-08T08:08:33;14.37;;;5.03;;
286;SDS011;127;48.770;9.212;2023-07-08T08:11:02;11.20;;;4.73;;
286;SDS011;127;48.770;9.212;2023-07-08T08:13:31;9.70;;;4.17;;
286;SDS011;127;48.770;9.212;2023-07-08T08:15:59;17.97;;;5.30;;
286;SDS011;127;48.770;9.212;2023-07-08T08:25:17;10.37;;;4.70;;
286;SDS011;127;48.770;9.212;2023-07-08T08:28:06;10.27;;;4.67;;
286;SDS011;127;48.770;9.212;2023-07-08T08:30:46;9.63;;;4.47;;
286;SDS011;127;48.770;9.212;2023-07-08T08:33:16;8.60;;;3.77;;
286;SDS011;127;48.770;9.212;2023-07-08T08:36:07;9.63;;;4.70;;
286;SDS011;127;48.770;9.212;2023-07-08T08:38:47;6.37;;;3.80;;
286;SDS011;127;48.770;9.212;2023-07-08T08:41:21;6.57;;;3.20;;
286;SDS011;127;48.770;9.212;2023-07-08T08:43:57;7.00;;;3.43;;
286;SDS011;127;48.770;9.212;2023-07-08T08:46:29;5.77;;;3.23;;
286;SDS011;127;48.770;9.212;2023-07-08T08:49:16;10.23;;;3.90;;
286;SDS011;127;48.770;9.212;2023-07-08T08:52:00;9.10;;;3.30;;
286;SDS011;127;48.770;9.212;2023-07-08T08:54:29;7.00;;;3.37;;
286;SDS011;127;48.770;9.212;2023-07-08T08:57:04;8.53;;;3.77;;
286;SDS011;127;48.770;9.212;2023-07-08T08:59:42;8.83;;;3.77;;
286;SDS011;127;48.770;9.212;2023-07-08T09:02:23;6.27;;;3.33;;
286;SDS011;127;48.770;9.212;2023-07-08T09:05:01;7.17;;;3.50;;
286;SDS011;127;48.770;9.212;2023-07-08T09:07:35;10.90;;;4.07;;
286;SDS011;127;48.770;9.212;2023-07-08T09:10:15;7.97;;;3.50;;
286;SDS011;127;48.770;9.212;2023-07-08T09:12:55;7.70;;;3.60;;
286;SDS011;127;48.770;9.212;2023-07-08T09:15:25;12.87;;;3.10;;
286;SDS011;127;48.770;9.212;2023-07-08T09:17:54;5.10;;;3.03;;
286;SDS011;127;48.770;9.212;2023-07-08T09:20:28;7.20;;;3.90;;
286;SDS011;127;48.770;9.212;2023-07-08T09:22:58;10.67;;;3.80;;
286;SDS011;127;48.770;9.212;2023-07-08T09:25:32;7.20;;;3.20;;
286;SDS011;127;48.770;9.212;2023-07-08T09:28:06;7.50;;;3.30;;
286;SDS011;127;48.770;9.212;2023-07-08T09:30:40;10.53;;;3.80;;
286;SDS011;127;48.770;9.212;2023-07-08T09:33:09;5.53;;;3.50;;
286;SDS011;127;48.770;9.212;2023-07-08T09:35:38;7.90;;;3.87;;
286;SDS011;127;48.770;9.212;2023-07-08T09:38:09;7.50;;;4.17;;
286;SDS011;127;48.770;9.212;2023-07-08T09:40:44;7.13;;;3.40;;
286;SDS011;127;48.770;9.212;2023-07-08T09:43:23;10.20;;;4.43;;
286;SDS011;127;48.770;9.212;2023-07-08T09:45:57;9.90;;;4.00;;
286;SDS011;127;48.770;9.212;2023-07-08T09:48:27;8.60;;;4.00;;
286;SDS011;127;48.770;9.212;2023-07-08T09:50:57;10.73;;;4.00;;
286;SDS011;127;48.770;9.212;2023-07-08T09:53:26;6.50;;;3.80;;
286;SDS011;127;48.770;9.212;2023-07-08T09:55:56;4.83;;;3.10;;
286;SDS011;127;48.770;9.212;2023-07-08T09:58:32;6.83;;;3.53;;
286;SDS011;127;48.770;9.212;2023-07-08T10:01:08;7.67;;;4.37;;
286;SDS011;127;48.770;9.212;2023-07-08T10:03:38;11.90;;;3.87;;
286;SDS011;127;48.770;9.212;2023-07-08T10:06:14;6.40;;;3.83;;
286;SDS011;127;48.770;9.212;2023-07-08T10:08:46;16.00;;;4.40;;
286;SDS011;127;48.770;9.212;2023-07-08T10:11:18;7.87;;;4.40;;
286;SDS011;127;48.770;9.212;2023-07-08T10:13:59;7.50;;;4.23;;
286;SDS011;127;48.770;9.212;2023-07-08T10:16:32;7.97;;;4.97;;
286;SDS011;127;48.770;9.212;2023-07-08T10:19:04;13.20;;;4.70;;
286;SDS011;127;48.770;9.212;2023-07-08T10:21:41;10.33;;;4.67;;
286;SDS011;127;48.770;9.212;2023-07-08T10:24:21;11.13;;;4.30;;
286;SDS011;127;48.770;9.212;2023-07-08T10:27:04;11.63;;;5.83;;
286;SDS011;127;48.770;9.212;2023-07-08T10:29:39;10.70;;;4.93;;
286;SDS011;127;48.770;9.212;2023-07-08T10:32:14;9.13;;;4.70;;
286;SDS011;127;48.770;9.212;2023-07-08T10:34:57;10.53;;;4.17;;
286;SDS011;127;48.770;9.212;2023-07-08T10:37:33;6.10;;;4.10;;
286;SDS011;127;48.770;9.212;2023-07-08T10:40:14;13.40;;;3.63;;
286;SDS011;127;48.770;9.212;2023-07-08T10:42:54;8.80;;;4.70;;
286;SDS011;127;48.770;9.212;2023-07-08T10:45:44;8.13;;;4.33;;
286;SDS011;127;48.770;9.212;2023-07-08T10:48:24;5.43;;;4.00;;
286;SDS011;127;48.770;9.212;2023-07-08T10:51:06;9.20;;;4.00;;
286;SDS011;127;48.770;9.212;2023-07-08T10:53:47;7.47;;;4.33;;
286;SDS011;127;48.770;9.212;2023-07-08T10:56:34;8.30;;;3.20;;
286;SDS011;127;48.770;9.212;2023-07-08T10:59:18;10.13;;;3.80;;
286;SDS011;127;48.770;9.212;2023-07-08T11:02:02;6.13;;;3.63;;
286;SDS011;127;48.770;9.212;2023-07-08T11:04:53;8.83;;;4.27;;
286;SDS011;127;48.770;9.212;2023-07-08T11:07:31;5.73;;;4.10;;
286;SDS011;127;48.770;9.212;2023-07-08T11:10:06;7.10;;;3.40;;
286;SDS011;127;48.770;9.212;2023-07-08T11:12:39;6.70;;;3.77;;
286;SDS011;127;48.770;9.212;2023-07-08T11:15:16;6.40;;;3.50;;
286;SDS011;127;48.770;9.212;2023-07-08T11:17:55;7.33;;;3.43;;
286;SDS011;127;48.770;9.212;2023-07-08T11:20:28;4.90;;;3.70;;
286;SDS011;127;48.770;9.212;2023-07-08T11:23:04;4.93;;;3.37;;
286;SDS011;127;48.770;9.212;2023-07-08T11:25:54;7.67;;;3.17;;
286;SDS011;127;48.770;9.212;2023-07-08T11:28:32;10.10;;;3.40;;
286;SDS011;127;48.770;9.212;2023-07-08T11:31:01;8.57;;;3.37;;
286;SDS011;127;48.770;9.212;2023-07-08T11:33:36;6.13;;;3.53;;
286;SDS011;127;48.770;9.212;2023-07-08T11:36:06;7.63;;;3.67;;
286;SDS011;127;48.770;9.212;2023-07-08T11:38:37;6.97;;;3.17;;
286;SDS011;127;48.770;9.212;2023-07-08T11:41:16;6.10;;;3.30;;
286;SDS011;127;48.770;9.212;2023-07-08T11:43:47;5.20;;;2.87;;
286;SDS011;127;48.770;9.212;2023-07-08T11:46:19;5.37;;;3.50;;
286;SDS011;127;48.770;9.212;2023-07-08T11:48:53;6.80;;;3.70;;
286;SDS011;127;48.770;9.212;2023-07-08T11:51:24;5.33;;;3.70;;
286;SDS011;127;48.770;9.212;2023-07-08T11:53:58;6.27;;;3.37;;
286;SDS011;127;48.770;9.212;2023-07-08T11:56:46;4.47;;;3.17;;
286;SDS011;127;48.770;9.212;2023-07-08T11:59:19;5.77;;;3.50;;
286;SDS011;127;48.770;9.212;2023-07-08T12:01:51;8.37;;;3.40;;
286;SDS011;127;48.770;9.212;2023-07-08T12:04:31;6.90;;;3.37;;
286;SDS011;127;48.770;9.212;2023-07-08T12:07:12;5.50;;;3.47;;
286;SDS011;127;48.770;9.212;2023-07-08T12:09:47;5.60;;;2.70;;
286;SDS011;127;48.770;9.212;2023-07-08T12:12:21;5.10;;;3.70;;
286;SDS011;127;48.770;9.212;2023-07-08T12:14:53;8.70;;;3.20;;
286;SDS011;127;48.770;9.212;2023-07-08T12:17:28;7.47;;;3.40;;
286;SDS011;127;48.770;9.212;2023-07-08T12:20:00;6.50;;;3.20;;
286;SDS011;127;48.770;9.212;2023-07-08T12:22:32;5.90;;;3.47;;
286;SDS011;127;48.770;9.212;2023-07-08T12:25:01;7.10;;;3.30;;
286;SDS011;127;48.770;9.212;2023-07-08T12:27:30;6.03;;;3.20;;
286;SDS011;127;48.770;9.212;2023-07-08T12:29:59;4.30;;;2.90;;
286;SDS011;127;48.770;9.212;2023-07-08T12:32:28;4.40;;;3.00;;
286;SDS011;127;48.770;9.212;2023-07-08T12:34:57;8.67;;;3.10;;
286;SDS011;127;48.770;9.212;2023-07-08T12:37:28;7.10;;;3.27;;
286;SDS011;127;48.770;9.212;2023-07-08T12:39:58;4.47;;;3.17;;
286;SDS011;127;48.770;9.212;2023-07-08T12:42:31;6.57;;;3.50;;
286;SDS011;127;48.770;9.212;2023-07-08T12:44:59;4.17;;;2.90;;
286;SDS011;127;48.770;9.212;2023-07-08T12:47:29;6.93;;;3.40;;
286;SDS011;127;48.770;9.212;2023-07-08T12:49:57;6.40;;;3.17;;
286;SDS011;127;48.770;9.212;2023-07-08T12:52:29;7.20;;;3.30;;
286;SDS011;127;48.770;9.212;2023-07-08T12:54:58;6.53;;;3.37;;
286;SDS011;127;48.770;9.212;2023-07-08T12:57:26;6.40;;;3.30;;
286;SDS011;127;48.770;9.212;2023-07-08T12:59:55;9.90;;;3.93;;
286;SDS011;127;48.770;9.212;2023-07-08T13:02:25;4.77;;;3.07;;
286;SDS011;127;48.770;9.212;2023-07-08T13:04:59;6.97;;;2.80;;
286;SDS011;127;48.770;9.212;2023-07-08T13:07:35;8.70;;;3.50;;
286;SDS011;127;48.770;9.212;2023-07-08T13:10:06;3.90;;;2.83;;
286;SDS011;127;48.770;9.212;2023-07-08T13:12:43;6.13;;;3.70;;
286;SDS011;127;48.770;9.212;2023-07-08T13:15:13;6.43;;;2.97;;
286;SDS011;127;48.770;9.212;2023-07-08T13:17:49;6.43;;;3.47;;
286;SDS011;127;48.770;9.212;2023-07-08T13:20:18;3.90;;;2.60;;
286;SDS011;127;48.770;9.212;2023-07-08T13:22:54;5.23;;;2.83;;
286;SDS011;127;48.770;9.212;2023-07-08T13:25:26;11.37;;;3.17;;
286;SDS011;127;48.770;9.212;2023-07-08T13:27:58;5.73;;;3.00;;
286;SDS011;127;48.770;9.212;2023-07-08T13:30:28;14.10;;;3.97;;
286;SDS011;127;48.770;9.212;2023-07-08T13:33:14;6.03;;;3.17;;
286;SDS011;127;48.770;9.212;2023-07-08T13:35:48;7.20;;;3.03;;
286;SDS011;127;48.770;9.212;2023-07-08T13:38:24;3.47;;;2.63;;
286;SDS011;127;48.770;9.212;2023-07-08T13:40:56;4.00;;;2.83;;
286;SDS011;127;48.770;9.212;2023-07-08T13:43:29;8.60;;;2.80;;
286;SDS011;127;48.770;9.212;2023-07-08T13:45:59;5.40;;;2.80;;
286;SDS011;127;48.770;9.212;2023-07-08T13:48:29;8.13;;;2.73;;
286;SDS011;127;48.770;9.212;2023-07-08T13:51:02;5.83;;;2.97;;
286;SDS011;127;48.770;9.212;2023-07-08T13:53:44;3.70;;;2.47;;
286;SDS011;127;48.770;9.212;2023-07-08T13:56:15;3.40;;;2.50;;
286;SDS011;127;48.770;9.212;2023-07-08T13:58:49;4.03;;;2.97;;
286;SDS011;127;48.770;9.212;2023-07-08T14:01:19;6.73;;;2.80;;
286;SDS011;127;48.770;9.212;2023-07-08T14:03:51;8.03;;;3.00;;
286;SDS011;127;48.770;9.212;2023-07-08T14:06:21;6.87;;;3.43;;
286;SDS011;127;48.770;9.212;2023-07-08T14:08:56;6.07;;;2.77;;
286;SDS011;127;48.770;9.212;2023-07-08T14:11:26;6.57;;;3.00;;
286;SDS011;127;48.770;9.212;2023-07-08T14:13:54;5.40;;;3.00;;
286;SDS011;127;48.770;9.212;2023-07-08T14:16:24;6.40;;;2.70;;
286;SDS011;127;48.770;9.212;2023-07-08T14:18:55;7.40;;;2.97;;
286;SDS011;127;48.770;9.212;2023-07-08T14:21:26;4.30;;;2.67;;
286;SDS011;127;48.770;9.212;2023-07-08T14:24:01;9.80;;;2.90;;
286;SDS011;127;48.770;9.212;2023-07-08T14:26:30;6.50;;;3.03;;
286;SDS011;127;48.770;9.212;2023-07-08T14:28:58;4.40;;;2.73;;
286;SDS011;127;48.770;9.212;2023-07-08T14:31:27;4.60;;;2.97;;
286;SDS011;127;48.770;9.212;2023-07-08T14:33:57;3.77;;;3.03;;
286;SDS011;127;48.770;9.212;2023-07-08T14:36:31;4.40;;;3.47;;
286;SDS011;127;48.770;9.212;2023-07-08T14:39:04;6.37;;;2.90;;
286;SDS011;127;48.770;9.212;2023-07-08T14:41:39;8.30;;;3.37;;
286;SDS011;127;48.770;9.212;2023-07-08T14:44:10;5.43;;;3.10;;
286;SDS011;127;48.770;9.212;2023-07-08T14:46:48;4.60;;;2.53;;
286;SDS011;127;48.770;9.212;2023-07-08T14:49:19;5.07;;;3.03;;
286;SDS011;127;48.770;9.212;2023-07-08T14:51:49;7.17;;;3.70;;
286;SDS011;127;48.770;9.212;2023-07-08T14:54:23;8.63;;;3.27;;
286;SDS011;127;48.770;9.212;2023-07-08T14:56:52;8.73;;;3.30;;
286;SDS011;127;48.770;9.212;2023-07-08T14:59:27;12.03;;;3.27;;
286;SDS011;127;48.770;9.212;2023-07-08T15:02:11;8.50;;;3.50;;
286;SDS011;127;48.770;9.212;2023-07-08T15:04:46;13.83;;;3.27;;
286;SDS011;127;48.770;9.212;2023-07-08T15:07:28;7.13;;;2.70;;
286;SDS011;127;48.770;9.212;2023-07-08T15:09:59;13.20;;;3.70;;
286;SDS011;127;48.770;9.212;2023-07-08T15:12:28;4.40;;;3.33;;
286;SDS011;127;48.770;9.212;2023-07-08T15:14:57;5.47;;;3.53;;
286;SDS011;127;48.770;9.212;2023-07-08T15:17:25;8.13;;;3.77;;
286;SDS011;127;48.770;9.212;2023-07-08T15:19:54;8.60;;;3.00;;
286;SDS011;127;48.770;9.212;2023-07-08T15:22:24;5.83;;;3.03;;
286;SDS011;127;48.770;9.212;2023-07-08T15:24:53;4.83;;;3.00;;
286;SDS011;127;48.770;9.212;2023-07-08T15:27:24;5.83;;;2.93;;
286;SDS011;127;48.770;9.212;2023-07-08T15:29:53;6.90;;;2.70;;
286;SDS011;127;48.770;9.212;2023-07-08T15:32:21;6.43;;;3.20;;
286;SDS011;127;48.770;9.212;2023-07-08T15:34:50;6.17;;;3.40;;
286;SDS011;127;48.770;9.212;2023-07-08T15:37:19;5.83;;;3.50;;
286;SDS011;127;48.770;9.212;2023-07-08T15:39:47;5.73;;;3.50;;
286;SDS011;127;48.770;9.212;2023-07-08T15:42:16;6.10;;;3.37;;
286;SDS011;127;48.770;9.212;2023-07-08T15:44:47;6.47;;;2.93;;
286;SDS011;127;48.770;9.212;2023-07-08T15:47:19;9.63;;;3.40;;
286;SDS011;127;48.770;9.212;2023-07-08T15:49:48;8.43;;;2.50;;
286;SDS011;127;48.770;9.212;2023-07-08T15:52:16;5.17;;;3.10;;
286;SDS011;127;48.770;9.212;2023-07-08T15:54:45;5.73;;;3.40;;
286;SDS011;127;48.770;9.212;2023-07-08T15:57:14;8.50;;;3.00;;
286;SDS011;127;48.770;9.212;2023-07-08T15:59:43;8.47;;;3.03;;
286;SDS011;127;48.770;9.212;2023-07-08T16:02:20;6.37;;;3.20;;
286;SDS011;127;48.770;9.212;2023-07-08T16:04:53;5.87;;;3.10;;
286;SDS011;127;48.770;9.212;2023-07-08T16:07:22;9.03;;;3.37;;
286;SDS011;127;48.770;9.212;2023-07-08T16:09:51;8.00;;;3.10;;
286;SDS011;127;48.770;9.212;2023-07-08T16:12:21;7.13;;;3.40;;
286;SDS011;127;48.770;9.212;2023-07-08T16:14:50;5.13;;;2.90;;